Webcam Meteoipassi more information Webcam Meteoipassi


Visit our other weather sites:

Pomeziameteo 1Sito sul meteo

MeteopomeziaSito sul meteo

Pomeziameteo DashboardSito sul meteo

Caput FrigorisSito sul meteo

BarcellonameteoSito sul meteo

ViterbometeoSito sul meteo

MeteotortoretoSito sul meteo

TortoretometeolidoSito sul meteo

MeteoGonzagaSito sul meteo



No particular awareness of the weather is required.    There are no Weather-warnings

Notice: Undefined offset: 6 in /web/htdocs/www.meteoipassi.it/home/weather28/metar/metarDisplay.php on line 75

Notice: Undefined offset: 5 in /web/htdocs/www.meteoipassi.it/home/weather28/metar/metarDisplay.php on line 75

Nearby METAR Reports

   
LIRQ - Firenze
Updated: Apr 18 2021 12:20 am
Clear  
Clear  
   Vento: NE 9.3 km/h
Vento: NE 9.3 km/h
Temperature: 9°C
Wind Chill: 8°C
Dew Point: -2°C
Humidity: 46%
Barometer: 1014 hPa
Visibility: More than 10 km
Cloud details: Clear
LIRQ 172220Z 04005KT CAVOK 09/M02 Q1014
LIRP - Lucca
Updated: Apr 18 2021 12:15 am
Clear  
Clear  
   Vento: East 7.4 km/h
Vento: East 7.4 km/h
Temperature: 7°C
Wind Chill: 6°C
Dew Point: 1°C
Humidity: 66%
Barometer: 1014 hPa
Visibility: More than 10 km
Cloud details: Clear
LIRP 172215Z 10004KT CAVOK 07/01 Q1014 NOSIG
LIPE - Bologna
Updated: Apr 18 2021 12:20 am
Clear  
Clear  
   Vento: SSW 13 km/h
Vento: SSW 13 km/h
Temperature: 6°C
Wind Chill: 3°C
Dew Point: 2°C
Humidity: 76%
Barometer: 1016 hPa
Visibility: More than 10 km
Cloud details: Clear
LIPE 172220Z 20007KT CAVOK 06/02 Q1016
LIMP - Parma
Updated: Apr 17 2021 11:50 pm
Clear  
Clear  
   Vento: SSW 3.7 km/h
Vento: SSW 3.7 km/h
Temperature: 7°C
Dew Point: 2°C
Humidity: 71%
Barometer: 1016 hPa
Visibility: More than 10 km
Cloud details: Clear
LIMP 172150Z 20002KT CAVOK 07/02 Q1016
  

Script developed by  Saratoga-weather.org Adapted for the template by  Weerstation Leuven

You find our weather info also at:

European Weather Network

Weather Underground

AWEKAS

HAMweather, WeatherForYou, PWS Weather

Equipment we use:

Weather-station
Davis Vantage Vue

Weather-program
WVIEW

Weather-server
WDS-5

Provider
Anemos WDS-5

Davis Vantage Vue

WVIEW

WDS-5

Anemos WDS-5